createdAt,value
2018-10-16T00:01:17.847Z,9.73
2018-10-16T00:03:46.838Z,13.73
2018-10-16T00:06:16.124Z,9.00
2018-10-16T00:08:45.169Z,13.70
2018-10-16T00:20:25.141Z,11.10
2018-10-16T00:22:54.505Z,8.67
2018-10-16T00:25:23.668Z,11.37
2018-10-16T00:27:53.080Z,11.63
2018-10-16T00:30:22.373Z,10.30
2018-10-16T00:32:51.700Z,10.17
2018-10-16T00:35:20.981Z,11.27
2018-10-16T00:37:50.131Z,10.10
2018-10-16T00:40:19.776Z,9.73
2018-10-16T00:42:49.092Z,11.70
2018-10-16T00:45:18.615Z,10.83
2018-10-16T00:47:47.787Z,10.50
2018-10-16T00:50:16.884Z,13.67
2018-10-16T00:52:46.210Z,11.37
2018-10-16T00:55:15.236Z,9.97
2018-10-16T00:57:44.568Z,10.70
2018-10-16T01:00:15.185Z,15.67
2018-10-16T01:02:44.841Z,10.43
2018-10-16T01:05:14.522Z,12.23
2018-10-16T01:07:44.039Z,11.67
2018-10-16T01:10:13.692Z,11.10
2018-10-16T01:12:43.274Z,14.40
2018-10-16T01:15:13.131Z,9.30
2018-10-16T01:17:42.579Z,11.03
2018-10-16T01:20:13.370Z,10.63
2018-10-16T01:22:43.108Z,11.30
2018-10-16T01:25:13.942Z,12.47
2018-10-16T01:27:43.549Z,12.00
2018-10-16T01:30:12.835Z,14.00
2018-10-16T01:32:41.883Z,11.27
2018-10-16T01:35:12.414Z,11.43
2018-10-16T01:37:42.729Z,10.67
2018-10-16T01:40:12.239Z,10.27
2018-10-16T01:42:41.641Z,10.97
2018-10-16T01:45:11.593Z,11.73
2018-10-16T01:47:40.926Z,12.63
2018-10-16T01:50:12.037Z,13.00
2018-10-16T01:52:41.436Z,12.40
2018-10-16T01:55:10.719Z,11.73
2018-10-16T01:57:41.108Z,13.67
2018-10-16T02:00:11.389Z,12.40
2018-10-16T02:02:40.945Z,12.07
2018-10-16T02:05:10.272Z,13.60
2018-10-16T02:07:39.332Z,10.63
2018-10-16T02:10:09.046Z,11.00
2018-10-16T02:12:38.411Z,10.83
2018-10-16T02:15:08.504Z,11.93
2018-10-16T02:17:38.749Z,11.33
2018-10-16T02:20:08.431Z,11.57
2018-10-16T02:22:38.229Z,11.60
2018-10-16T02:25:08.180Z,14.13
2018-10-16T02:27:37.297Z,15.67
2018-10-16T02:30:06.642Z,12.37
2018-10-16T02:32:35.730Z,10.00
2018-10-16T02:35:05.592Z,13.90
2018-10-16T02:37:34.989Z,11.90
2018-10-16T02:40:04.405Z,12.77
2018-10-16T02:42:33.605Z,10.97
2018-10-16T02:45:03.052Z,13.47
2018-10-16T02:47:32.420Z,11.33
2018-10-16T02:50:01.729Z,11.83
2018-10-16T02:52:31.063Z,11.53
2018-10-16T02:55:00.351Z,14.13
2018-10-16T03:00:43.688Z,13.73
2018-10-16T03:03:12.786Z,15.13
2018-10-16T03:05:42.177Z,16.23
2018-10-16T03:08:11.293Z,11.43
2018-10-16T03:10:40.689Z,11.60
2018-10-16T03:13:09.814Z,12.30
2018-10-16T03:15:39.455Z,10.53
2018-10-16T03:18:08.760Z,11.20
2018-10-16T03:20:37.897Z,11.37
2018-10-16T03:23:07.166Z,13.90
2018-10-16T03:25:37.888Z,11.27
2018-10-16T03:28:07.261Z,11.10
2018-10-16T03:30:36.356Z,13.87
2018-10-16T03:33:05.448Z,15.70
2018-10-16T03:35:34.778Z,10.60
2018-10-16T03:38:03.851Z,12.53
2018-10-16T03:40:33.188Z,12.97
2018-10-16T03:43:03.903Z,15.07
2018-10-16T03:45:33.296Z,13.57
2018-10-16T03:48:02.791Z,14.27
2018-10-16T03:50:32.156Z,11.57
2018-10-16T03:53:01.936Z,13.63
2018-10-16T03:55:31.373Z,11.80
2018-10-16T03:58:00.767Z,10.67
2018-10-16T04:00:30.174Z,11.80
2018-10-16T04:02:59.213Z,13.87
2018-10-16T04:05:28.530Z,13.60
2018-10-16T04:07:57.511Z,13.17
2018-10-16T04:10:26.548Z,12.77
2018-10-16T04:12:55.755Z,12.47
2018-10-16T04:15:25.029Z,13.80
2018-10-16T04:17:54.227Z,9.73
2018-10-16T04:20:23.233Z,15.10
2018-10-16T04:22:53.339Z,14.23
2018-10-16T04:25:22.243Z,14.60
2018-10-16T04:27:51.488Z,17.17
2018-10-16T04:30:20.698Z,12.23
2018-10-16T04:32:49.654Z,11.27
2018-10-16T04:35:18.830Z,16.67
2018-10-16T04:37:47.801Z,11.57
2018-10-16T04:40:16.985Z,13.00
2018-10-16T04:42:45.932Z,15.03
2018-10-16T04:45:15.138Z,14.97
2018-10-16T04:47:44.315Z,14.37
2018-10-16T04:50:13.488Z,16.30
2018-10-16T04:52:42.689Z,11.37
2018-10-16T04:55:11.663Z,13.63
2018-10-16T04:57:40.848Z,16.70
2018-10-16T05:00:10.394Z,16.67
2018-10-16T05:02:41.396Z,14.67
2018-10-16T05:05:14.163Z,13.77
2018-10-16T05:07:43.346Z,12.63
2018-10-16T05:10:19.644Z,14.73
2018-10-16T05:12:48.849Z,12.37
2018-10-16T05:15:26.963Z,12.43
2018-10-16T05:17:56.285Z,12.40
2018-10-16T05:20:25.487Z,12.93
2018-10-16T05:22:54.988Z,13.13
2018-10-16T05:25:24.839Z,13.73
2018-10-16T05:27:54.164Z,14.70
2018-10-16T05:30:23.334Z,14.43
2018-10-16T05:32:52.680Z,12.83
2018-10-16T05:35:21.880Z,13.63
2018-10-16T05:37:50.862Z,12.77
2018-10-16T05:40:19.806Z,13.90
2018-10-16T05:42:49.019Z,12.37
2018-10-16T05:45:18.230Z,13.00
2018-10-16T05:47:47.507Z,15.73
2018-10-16T05:50:16.655Z,15.17
2018-10-16T05:52:45.929Z,21.30
2018-10-16T05:55:15.117Z,25.27
2018-10-16T05:57:44.319Z,17.73
2018-10-16T06:00:30.533Z,16.67
2018-10-16T06:02:59.738Z,17.27
2018-10-16T06:05:28.992Z,13.93
2018-10-16T06:07:58.316Z,22.50
2018-10-16T06:10:27.245Z,17.50
2018-10-16T06:12:56.436Z,16.20
2018-10-16T06:15:25.624Z,16.50
2018-10-16T06:17:54.816Z,13.70
2018-10-16T06:20:23.999Z,15.63
2018-10-16T06:22:53.225Z,16.03
2018-10-16T06:25:22.422Z,14.10
2018-10-16T06:27:51.660Z,13.63
2018-10-16T06:30:20.658Z,20.07
2018-10-16T06:32:49.774Z,13.40
2018-10-16T06:35:18.959Z,15.73
2018-10-16T06:37:47.902Z,14.37
2018-10-16T06:40:17.076Z,13.73
2018-10-16T06:42:46.260Z,17.00
2018-10-16T06:45:15.498Z,16.33
2018-10-16T06:47:44.724Z,12.47
2018-10-16T06:50:13.926Z,14.70
2018-10-16T06:52:43.134Z,13.93
2018-10-16T06:55:12.367Z,14.50
2018-10-16T06:57:41.642Z,14.33
2018-10-16T07:00:10.597Z,15.17
2018-10-16T07:02:39.863Z,15.67
2018-10-16T07:05:09.151Z,16.97
2018-10-16T07:07:38.315Z,15.47
2018-10-16T07:10:08.053Z,15.33
2018-10-16T07:12:37.275Z,18.00
2018-10-16T07:15:07.022Z,14.27
2018-10-16T07:17:36.127Z,15.97
2018-10-16T07:20:06.904Z,18.00
2018-10-16T07:22:36.105Z,14.63
2018-10-16T07:25:06.598Z,15.83
2018-10-16T07:27:35.555Z,14.77
2018-10-16T07:30:05.454Z,11.37
2018-10-16T07:32:34.614Z,14.37
2018-10-16T07:35:04.337Z,15.03
2018-10-16T07:37:33.286Z,15.43
2018-10-16T07:40:02.469Z,15.77
2018-10-16T07:42:31.472Z,12.87
2018-10-16T07:45:00.390Z,16.03
2018-10-16T07:47:29.578Z,15.80
2018-10-16T07:49:58.788Z,13.27
2018-10-16T07:52:28.055Z,15.63
2018-10-16T07:54:57.238Z,12.43
2018-10-16T07:57:26.449Z,24.27
2018-10-16T07:59:55.661Z,11.83
2018-10-16T08:02:24.607Z,14.63
2018-10-16T08:04:53.568Z,14.57
2018-10-16T08:07:22.740Z,14.17
2018-10-16T08:09:51.998Z,15.33
2018-10-16T08:12:20.935Z,17.83
2018-10-16T08:14:50.114Z,15.27
2018-10-16T08:17:19.327Z,15.97
2018-10-16T08:19:48.486Z,12.37
2018-10-16T08:22:17.673Z,13.90
2018-10-16T08:24:46.943Z,13.27
2018-10-16T08:27:16.123Z,12.07
2018-10-16T08:29:45.297Z,13.00
2018-10-16T08:32:14.475Z,15.43
2018-10-16T08:34:43.648Z,12.30
2018-10-16T08:37:18.451Z,12.30
2018-10-16T08:39:48.740Z,14.33
2018-10-16T08:43:43.452Z,14.23
2018-10-16T08:46:29.975Z,14.23
2018-10-16T08:49:16.202Z,17.07
2018-10-16T08:51:51.522Z,21.87
2018-10-16T08:54:20.759Z,14.80
2018-10-16T08:56:49.915Z,13.30
2018-10-16T08:59:19.197Z,18.27
2018-10-16T09:01:48.373Z,24.50
2018-10-16T09:04:17.583Z,15.73
2018-10-16T09:06:46.873Z,11.27
2018-10-16T09:09:16.973Z,12.73
2018-10-16T09:11:47.327Z,14.73
2018-10-16T09:14:17.161Z,20.97
2018-10-16T09:16:46.287Z,19.37
2018-10-16T09:19:15.578Z,17.13
2018-10-16T09:21:44.755Z,20.17
2018-10-16T09:24:13.698Z,15.67
2018-10-16T09:26:42.647Z,16.87
2018-10-16T09:29:11.855Z,14.63
2018-10-16T09:31:40.779Z,18.70
2018-10-16T09:34:09.726Z,22.00
2018-10-16T09:36:38.881Z,14.97
2018-10-16T09:39:10.026Z,13.40
2018-10-16T09:41:39.235Z,15.80
2018-10-16T09:44:08.182Z,16.20
2018-10-16T09:46:37.596Z,16.23
2018-10-16T09:49:06.998Z,12.53
2018-10-16T09:51:36.194Z,22.63
2018-10-16T09:54:05.258Z,25.07
2018-10-16T09:56:34.591Z,15.27
2018-10-16T09:59:03.783Z,14.83
2018-10-16T10:01:38.149Z,19.70
2018-10-16T10:04:07.262Z,14.60
2018-10-16T10:06:36.364Z,18.43
2018-10-16T10:09:08.480Z,15.17
2018-10-16T10:11:37.352Z,16.97
2018-10-16T10:14:06.933Z,17.17
2018-10-16T10:16:36.201Z,20.63
2018-10-16T10:19:06.501Z,16.87
2018-10-16T10:21:35.709Z,18.20
2018-10-16T10:24:04.606Z,16.37
2018-10-16T10:26:33.774Z,17.97
2018-10-16T10:29:03.141Z,21.27
2018-10-16T10:31:32.292Z,23.07
2018-10-16T10:34:01.423Z,25.73
2018-10-16T10:36:30.608Z,17.30
2018-10-16T10:38:59.757Z,14.27
2018-10-16T10:41:28.929Z,14.70
2018-10-16T10:43:58.119Z,14.00
2018-10-16T10:46:27.245Z,16.90
2018-10-16T10:48:56.157Z,19.40
2018-10-16T10:51:25.535Z,13.83
2018-10-16T10:53:54.457Z,16.40
2018-10-16T10:56:23.583Z,15.83
2018-10-16T10:58:52.798Z,14.40
2018-10-16T11:01:21.916Z,15.90
2018-10-16T11:03:51.077Z,15.50
2018-10-16T11:06:20.313Z,14.90
2018-10-16T11:08:49.364Z,16.80
2018-10-16T11:11:18.258Z,16.13
2018-10-16T11:13:47.145Z,12.93
2018-10-16T11:16:16.253Z,12.83
2018-10-16T11:18:45.381Z,15.37
2018-10-16T11:21:14.571Z,13.47
2018-10-16T11:23:43.420Z,14.53
2018-10-16T11:26:12.574Z,15.73
2018-10-16T11:28:41.705Z,13.33
2018-10-16T11:31:10.610Z,14.90
2018-10-16T11:33:39.794Z,16.57
2018-10-16T11:36:08.705Z,17.57
2018-10-16T11:38:37.841Z,17.70
2018-10-16T11:41:07.029Z,16.10
2018-10-16T11:43:36.141Z,17.00
2018-10-16T11:46:05.853Z,17.57
2018-10-16T11:48:34.852Z,12.70
2018-10-16T11:51:03.769Z,13.80
2018-10-16T11:53:42.889Z,15.70
2018-10-16T11:56:11.895Z,15.03
2018-10-16T11:58:40.943Z,15.20
2018-10-16T12:01:10.209Z,12.73
2018-10-16T12:03:39.099Z,16.53
2018-10-16T12:06:08.641Z,12.80
2018-10-16T12:08:37.757Z,18.70
2018-10-16T12:11:07.252Z,14.87
2018-10-16T12:13:36.318Z,16.53
2018-10-16T12:16:05.473Z,15.50
2018-10-16T12:18:56.973Z,16.40
2018-10-16T12:21:26.201Z,15.33
2018-10-16T12:23:55.349Z,16.20
2018-10-16T12:26:24.458Z,17.10
2018-10-16T12:28:53.608Z,17.00
2018-10-16T12:31:22.814Z,15.60
2018-10-16T12:33:51.932Z,15.27
2018-10-16T12:36:21.206Z,14.97
2018-10-16T12:38:50.687Z,16.00
2018-10-16T12:41:19.798Z,15.37
2018-10-16T12:43:48.992Z,17.30
2018-10-16T12:46:18.099Z,17.23
2018-10-16T12:48:47.270Z,21.50
2018-10-16T12:51:16.591Z,17.17
2018-10-16T12:53:45.677Z,14.87
2018-10-16T12:56:14.916Z,19.07
2018-10-16T12:58:43.995Z,15.67
2018-10-16T13:01:12.893Z,16.67
2018-10-16T13:03:42.108Z,18.77
2018-10-16T13:06:10.914Z,17.63
2018-10-16T13:08:40.043Z,17.07
2018-10-16T13:11:09.172Z,16.47
2018-10-16T13:13:38.278Z,15.43
2018-10-16T13:16:07.472Z,15.77
2018-10-16T13:18:36.526Z,15.27
2018-10-16T13:21:06.028Z,17.50
2018-10-16T13:23:41.979Z,15.60
2018-10-16T13:26:11.078Z,21.87
2018-10-16T13:28:40.241Z,17.53
2018-10-16T13:31:09.350Z,19.70
2018-10-16T13:33:38.491Z,17.33
2018-10-16T13:36:07.593Z,18.17
2018-10-16T13:38:36.706Z,18.90
2018-10-16T13:41:06.045Z,16.63
2018-10-16T13:43:34.954Z,17.00
2018-10-16T13:46:04.018Z,17.63
2018-10-16T13:48:33.493Z,17.00
2018-10-16T13:51:02.823Z,18.97
2018-10-16T13:53:31.832Z,21.03
2018-10-16T13:56:00.973Z,20.27
2018-10-16T13:58:30.097Z,19.20
2018-10-16T14:00:58.976Z,18.80
2018-10-16T14:03:28.125Z,22.07
2018-10-16T14:05:57.057Z,20.63
2018-10-16T14:08:26.923Z,19.30
2018-10-16T14:10:55.823Z,18.57
2018-10-16T14:13:25.053Z,19.33
2018-10-16T14:15:54.168Z,23.63
2018-10-16T14:18:23.117Z,21.70
2018-10-16T14:20:52.254Z,20.23
2018-10-16T14:23:21.399Z,21.83
2018-10-16T14:25:50.652Z,21.63
2018-10-16T14:28:19.874Z,19.90
2018-10-16T14:30:48.977Z,23.53
2018-10-16T14:33:18.117Z,22.23
2018-10-16T14:35:47.017Z,19.40
2018-10-16T14:38:16.030Z,18.83
2018-10-16T14:40:45.086Z,20.27
2018-10-16T14:43:14.249Z,21.17
2018-10-16T14:45:43.361Z,18.57
2018-10-16T14:48:12.559Z,19.03
2018-10-16T14:50:41.634Z,22.53
2018-10-16T14:53:10.540Z,19.07
2018-10-16T14:55:39.750Z,18.23
2018-10-16T14:58:08.959Z,19.60
2018-10-16T15:00:38.069Z,19.97
2018-10-16T15:03:07.250Z,24.17
2018-10-16T15:05:36.388Z,21.43
2018-10-16T15:08:05.580Z,24.63
2018-10-16T15:10:34.796Z,23.80
2018-10-16T15:13:03.682Z,20.77
2018-10-16T15:15:32.821Z,20.13
2018-10-16T15:18:01.937Z,18.93
2018-10-16T15:20:31.076Z,21.90
2018-10-16T15:22:59.965Z,21.10
2018-10-16T15:25:29.118Z,18.93
2018-10-16T15:27:58.304Z,20.17
2018-10-16T15:30:27.514Z,24.53
2018-10-16T15:32:56.754Z,24.27
2018-10-16T15:35:25.875Z,22.73
2018-10-16T15:37:54.848Z,24.47
2018-10-16T15:40:24.011Z,23.37
2018-10-16T15:42:53.189Z,22.27
2018-10-16T15:45:22.325Z,19.30
2018-10-16T15:47:51.478Z,21.10
2018-10-16T15:50:20.629Z,22.23
2018-10-16T15:52:50.849Z,20.97
2018-10-16T15:55:20.020Z,21.37
2018-10-16T15:57:49.256Z,21.83
2018-10-16T16:00:18.321Z,23.33
2018-10-16T16:02:47.212Z,21.33
2018-10-16T16:05:16.387Z,19.63
2018-10-16T16:07:45.525Z,20.03
2018-10-16T16:10:15.884Z,21.80
2018-10-16T16:12:45.127Z,22.20
2018-10-16T16:15:14.763Z,19.77
2018-10-16T16:17:44.604Z,20.87
2018-10-16T16:20:14.724Z,24.67
2018-10-16T16:22:44.165Z,22.47
2018-10-16T16:25:14.324Z,25.30
2018-10-16T16:27:43.450Z,21.60
2018-10-16T16:30:15.936Z,21.57
2018-10-16T16:32:45.093Z,26.40
2018-10-16T16:35:14.311Z,25.33
2018-10-16T16:37:43.441Z,24.30
2018-10-16T16:40:13.874Z,25.97
2018-10-16T16:42:42.886Z,22.97
2018-10-16T16:45:12.599Z,22.53
2018-10-16T16:47:41.742Z,29.03
2018-10-16T16:50:12.201Z,25.17
2018-10-16T16:52:41.941Z,28.03
2018-10-16T16:55:12.769Z,29.13
2018-10-16T16:57:41.962Z,28.77
2018-10-16T17:00:12.117Z,26.13
2018-10-16T17:02:42.232Z,25.90
2018-10-16T17:05:11.842Z,26.07
2018-10-16T17:07:41.618Z,26.70
2018-10-16T17:10:10.865Z,25.63
2018-10-16T17:12:40.733Z,25.70
2018-10-16T17:15:13.635Z,28.27
2018-10-16T17:17:43.156Z,25.60
2018-10-16T17:20:12.622Z,25.27
2018-10-16T17:22:41.762Z,28.13
2018-10-16T17:25:13.868Z,28.77
2018-10-16T17:27:43.706Z,26.30
2018-10-16T17:30:14.790Z,25.40
2018-10-16T17:32:44.156Z,21.70
2018-10-16T17:35:13.609Z,23.17
2018-10-16T17:37:43.163Z,26.20
2018-10-16T17:40:13.498Z,22.50
2018-10-16T17:42:42.795Z,25.27
2018-10-16T17:45:13.345Z,22.50
2018-10-16T17:47:42.429Z,26.70
2018-10-16T17:50:14.174Z,26.93
2018-10-16T17:52:43.378Z,24.07
2018-10-16T17:55:16.245Z,23.47
2018-10-16T17:57:45.466Z,23.30
2018-10-16T18:00:15.903Z,27.53
2018-10-16T18:02:45.299Z,27.80
2018-10-16T18:05:14.763Z,26.37
2018-10-16T18:07:44.574Z,29.60
2018-10-16T18:10:13.536Z,26.10
2018-10-16T18:12:42.726Z,27.17
2018-10-16T18:15:13.094Z,30.43
2018-10-16T18:17:42.914Z,25.87
2018-10-16T18:20:14.090Z,31.00
2018-10-16T18:22:43.576Z,27.67
2018-10-16T18:25:12.834Z,26.60
2018-10-16T18:27:42.836Z,33.47
2018-10-16T18:30:12.218Z,28.10
2018-10-16T18:32:41.348Z,28.53
2018-10-16T18:35:10.893Z,36.37
2018-10-16T18:37:40.756Z,27.70
2018-10-16T18:40:10.804Z,27.73
2018-10-16T18:42:40.657Z,33.13
2018-10-16T18:45:11.575Z,28.20
2018-10-16T18:47:40.746Z,29.17
2018-10-16T18:50:11.314Z,25.67
2018-10-16T18:52:40.505Z,30.43
2018-10-16T18:55:11.221Z,30.77
2018-10-16T18:57:41.074Z,29.80
2018-10-16T19:00:13.402Z,30.07
2018-10-16T19:02:42.641Z,31.13
2018-10-16T19:05:11.581Z,37.43
2018-10-16T19:07:41.449Z,26.00
2018-10-16T19:10:10.340Z,29.00
2018-10-16T19:12:40.188Z,42.87
2018-10-16T19:15:11.510Z,28.20
2018-10-16T19:17:40.669Z,29.27
2018-10-16T19:20:11.436Z,32.53
2018-10-16T19:22:40.802Z,30.20
2018-10-16T19:25:10.787Z,28.63
2018-10-16T19:27:40.054Z,30.43
2018-10-16T19:30:10.641Z,32.23
2018-10-16T19:32:39.844Z,27.83
2018-10-16T19:35:09.977Z,34.10
2018-10-16T19:37:38.985Z,40.37
2018-10-16T19:40:08.155Z,39.47
2018-10-16T19:42:37.325Z,39.13
2018-10-16T19:45:07.563Z,35.13
2018-10-16T19:47:36.487Z,34.07
2018-10-16T19:50:06.190Z,33.40
2018-10-16T19:52:35.353Z,35.13
2018-10-16T19:55:04.679Z,32.80
2018-10-16T19:57:33.613Z,37.40
2018-10-16T20:00:02.616Z,37.47
2018-10-16T20:02:31.762Z,31.60
2018-10-16T20:05:00.931Z,30.43
2018-10-16T20:07:30.114Z,31.77
2018-10-16T20:09:59.258Z,30.13
2018-10-16T20:12:28.201Z,31.47
2018-10-16T20:14:57.376Z,33.97
2018-10-16T20:17:26.346Z,36.10
2018-10-16T20:19:55.507Z,41.40
2018-10-16T20:22:24.710Z,34.10
2018-10-16T20:25:00.340Z,37.70
2018-10-16T20:27:29.576Z,37.90
2018-10-16T20:29:58.493Z,30.47
2018-10-16T20:32:27.407Z,31.07
2018-10-16T20:34:56.401Z,30.67
2018-10-16T20:37:25.360Z,32.60
2018-10-16T20:39:54.524Z,33.73
2018-10-16T20:42:23.738Z,30.90
2018-10-16T20:44:52.657Z,33.80
2018-10-16T20:47:21.844Z,31.57
2018-10-16T20:49:51.015Z,32.17
2018-10-16T20:52:20.181Z,28.87
2018-10-16T20:54:49.398Z,31.53
2018-10-16T20:57:18.554Z,32.17
2018-10-16T20:59:47.922Z,31.87
2018-10-16T21:02:16.838Z,27.30
2018-10-16T21:04:45.807Z,30.10
2018-10-16T21:07:14.763Z,36.50
2018-10-16T21:09:43.940Z,36.97
2018-10-16T21:12:13.080Z,32.30
2018-10-16T21:14:42.016Z,35.90
2018-10-16T21:17:11.170Z,31.83
2018-10-16T21:19:40.191Z,34.07
2018-10-16T21:22:09.263Z,33.77
2018-10-16T21:24:38.229Z,34.40
2018-10-16T21:27:09.582Z,35.40
2018-10-16T21:29:38.543Z,30.10
2018-10-16T21:32:08.278Z,37.17
2018-10-16T21:34:37.227Z,32.30
2018-10-16T21:37:06.439Z,32.40
2018-10-16T21:39:35.332Z,35.03
2018-10-16T21:42:04.624Z,38.30
2018-10-16T21:44:33.824Z,34.60
2018-10-16T21:47:02.795Z,34.63
2018-10-16T21:49:31.904Z,37.90
2018-10-16T21:52:01.047Z,32.10
2018-10-16T21:54:29.937Z,34.03
2018-10-16T21:56:58.824Z,32.10
2018-10-16T21:59:28.048Z,33.23
2018-10-16T22:02:05.568Z,32.17
2018-10-16T22:04:34.689Z,32.57
2018-10-16T22:07:03.734Z,34.30
2018-10-16T22:09:32.824Z,34.90
2018-10-16T22:12:01.753Z,33.77
2018-10-16T22:14:30.948Z,30.53
2018-10-16T22:17:00.086Z,33.37
2018-10-16T22:19:30.071Z,34.23
2018-10-16T22:21:59.232Z,35.40
2018-10-16T22:24:28.401Z,28.90
2018-10-16T22:26:57.312Z,29.87
2018-10-16T22:29:26.293Z,31.37
2018-10-16T22:31:59.308Z,30.10
2018-10-16T22:34:28.224Z,33.67
2018-10-16T22:36:57.437Z,36.43
2018-10-16T22:39:26.568Z,28.30
2018-10-16T22:41:55.717Z,30.93
2018-10-16T22:44:24.894Z,29.70
2018-10-16T22:46:54.081Z,32.87
2018-10-16T22:49:23.301Z,28.50
2018-10-16T22:51:52.449Z,33.07
2018-10-16T22:54:21.589Z,31.57
2018-10-16T22:56:50.704Z,32.30
2018-10-16T22:59:19.893Z,30.43
2018-10-16T23:01:48.796Z,33.63
2018-10-16T23:04:20.284Z,34.90
2018-10-16T23:06:49.324Z,32.97
2018-10-16T23:09:18.708Z,29.87
2018-10-16T23:11:47.837Z,34.13
2018-10-16T23:14:17.009Z,30.80
2018-10-16T23:16:46.124Z,33.20
2018-10-16T23:19:15.142Z,37.10
2018-10-16T23:21:44.199Z,30.80
2018-10-16T23:24:13.326Z,35.60
2018-10-16T23:26:42.203Z,35.37
2018-10-16T23:29:11.410Z,33.07
2018-10-16T23:31:40.496Z,30.97
2018-10-16T23:34:09.503Z,31.73
2018-10-16T23:36:38.403Z,32.40
2018-10-16T23:39:11.028Z,30.70
2018-10-16T23:41:40.985Z,27.17
2018-10-16T23:44:10.305Z,29.00
2018-10-16T23:46:39.564Z,33.50
2018-10-16T23:49:09.788Z,31.00
2018-10-16T23:51:39.128Z,33.30
2018-10-16T23:54:08.009Z,32.83
2018-10-16T23:56:39.264Z,30.37
